Bock, Minnesota
Current Conditions -  °F | °C
As of 9:54 PM on Friday 28 Nov 2014 (Local Time) from KPNM Reporting Station
Overcast Overcast  
Wind Chill: 11°   Ceiling: 1700
Heat Index: 19°   Visibility: 10mi
Dew Point: 16°   Wind: 6mph
Humidity: 86%   Direction: 70°ENE
Pressure: 29.73"   Gusts: NA
Location:  45.78°N, 93.56°W
Report Text: KPNM 290354Z AUTO 07005KT 10SM OVC017 M07/M09 A2973 RMK AO2
Loading
Personal Weather Stations






























Interactive Weather Map New forecast layout! Learn more

10-Day Weather Forecast

Advertisements
Track Severe Weather on mobile